Time;durP1;ratioP1;P1;durP2;ratioP2;P2;SDS_P1;SDS_P2;PMS_P1;PMS_P2;Temp;Humidity;BMP_temperature;BMP_pressure;BME280_temperature;BME280_humidity;BME280_pressure;Samples;Min_cycle;Max_cycle;Signal;HPM_P1;HPM_P2
2022/08/24 00:01:33;;;;;;;;;4.25;4.25;;;;;;;;4989610;28;45295;-73
2022/08/24 00:03:58;;;;;;;;;3.50;3.50;;;;;;;;4988000;28;45383;-73
2022/08/24 00:06:24;;;;;;;;;4.33;4.33;;;;;;;;4993589;28;45446;-73
2022/08/24 00:08:50;;;;;;;;;5.67;4.67;;;;;;;;4990599;28;45239;-73
2022/08/24 00:11:16;;;;;;;;;5.00;4.33;;;;;;;;4994521;28;45257;-73
2022/08/24 00:13:41;;;;;;;;;5.25;5.25;;;;;;;;4991553;28;45214;-73
2022/08/24 00:16:08;;;;;;;;;6.25;4.75;;;;;;;;4995597;28;45373;-73
2022/08/24 00:18:33;;;;;;;;;4.00;4.00;;;;;;;;4990448;28;45266;-73
2022/08/24 00:20:58;;;;;;;;;5.00;5.00;;;;;;;;4992809;27;45307;-73
2022/08/24 00:23:24;;;;;;;;;7.00;6.00;;;;;;;;4991765;28;45412;-73
2022/08/24 00:25:50;;;;;;;;;7.00;4.00;;;;;;;;4992929;27;45281;-73
2022/08/24 00:28:16;;;;;;;;;4.33;4.33;;;;;;;;4990552;28;45635;-73
2022/08/24 00:30:41;;;;;;;;;4.67;4.67;;;;;;;;4992686;28;45318;-73
2022/08/24 00:33:07;;;;;;;;;4.00;4.00;;;;;;;;4991821;27;45681;-73
2022/08/24 00:35:32;;;;;;;;;5.00;5.00;;;;;;;;4991974;27;45436;-73
2022/08/24 00:37:57;;;;;;;;;0.00;0.00;;;;;;;;4991934;28;45497;-74
2022/08/24 00:40:22;;;;;;;;;3.67;3.67;;;;;;;;4990755;28;45316;-73
2022/08/24 00:42:49;;;;;;;;;6.33;5.33;;;;;;;;4994128;27;45952;-73
2022/08/24 00:45:15;;;;;;;;;6.50;5.00;;;;;;;;4989590;28;45560;-73
2022/08/24 00:48:01;;;;;;;;;7.00;4.33;;;;;;;;4993236;27;46434;-73
2022/08/24 00:50:58;;;;;;;;;4.00;4.00;;;;;;;;4988392;27;45408;-73
2022/08/24 00:53:44;;;;;;;;;4.00;4.00;;;;;;;;5000715;28;45299;-73
2022/08/24 00:56:13;;;;;;;;;4.75;4.00;;;;;;;;4988976;27;45940;-73
2022/08/24 00:58:46;;;;;;;;;5.75;4.00;;;;;;;;4992233;28;47645;-73
2022/08/24 01:01:13;;;;;;;;;4.33;4.33;;;;;;;;4985931;28;45490;-73
2022/08/24 01:03:38;;;;;;;;;6.00;6.00;;;;;;;;4989501;28;45277;-73
2022/08/24 01:06:03;;;;;;;;;6.33;5.33;;;;;;;;4986713;27;45421;-73
2022/08/24 01:08:28;;;;;;;;;6.33;5.33;;;;;;;;4993128;28;45400;-73
2022/08/24 01:10:57;;;;;;;;;4.00;4.00;;;;;;;;4996414;28;45420;-73
2022/08/24 01:13:24;;;;;;;;;5.33;5.33;;;;;;;;4995901;28;45820;-73
2022/08/24 01:15:50;;;;;;;;;4.67;3.00;;;;;;;;4999068;27;45582;-73
2022/08/24 01:21:16;;;;;;;;;6.00;5.00;;;;;;;;4995385;28;45845;-73
2022/08/24 01:23:43;;;;;;;;;6.00;4.67;;;;;;;;4993400;27;45306;-73
2022/08/24 01:26:10;;;;;;;;;4.00;4.00;;;;;;;;4995528;28;45453;-73
2022/08/24 01:28:36;;;;;;;;;5.33;5.33;;;;;;;;4992705;28;45342;-73
2022/08/24 01:31:02;;;;;;;;;5.00;5.00;;;;;;;;4994574;27;45463;-73
2022/08/24 01:33:28;;;;;;;;;3.67;3.00;;;;;;;;4994743;27;45358;-73
2022/08/24 01:35:57;;;;;;;;;4.50;4.50;;;;;;;;4996367;27;45452;-73
2022/08/24 01:38:22;;;;;;;;;5.67;4.00;;;;;;;;4992322;27;45219;-73
2022/08/24 01:40:51;;;;;;;;;6.00;4.00;;;;;;;;4995256;28;45535;-73
2022/08/24 01:43:16;;;;;;;;;5.33;5.33;;;;;;;;4993227;28;45403;-73
2022/08/24 01:45:41;;;;;;;;;6.00;6.00;;;;;;;;4993778;28;45929;-73
2022/08/24 01:48:07;;;;;;;;;4.00;4.00;;;;;;;;4993156;27;46360;-73
2022/08/24 01:50:32;;;;;;;;;9.00;4.50;;;;;;;;4993659;28;45473;-73
2022/08/24 01:53:00;;;;;;;;;4.67;4.67;;;;;;;;4994390;28;45521;-72
2022/08/24 01:55:26;;;;;;;;;4.00;4.00;;;;;;;;4994241;28;46041;-73
2022/08/24 01:57:51;;;;;;;;;3.75;3.75;;;;;;;;4995192;28;45865;-73
2022/08/24 02:00:17;;;;;;;;;6.50;3.00;;;;;;;;4984093;28;45288;-73
2022/08/24 02:02:43;;;;;;;;;11.33;6.33;;;;;;;;4996710;28;45305;-73
2022/08/24 02:05:09;;;;;;;;;4.00;4.00;;;;;;;;4989856;27;45522;-73
2022/08/24 02:07:35;;;;;;;;;4.67;4.67;;;;;;;;4996769;27;45351;-73
2022/08/24 02:10:00;;;;;;;;;4.33;4.33;;;;;;;;4992549;27;45339;-73
2022/08/24 02:12:25;;;;;;;;;6.67;4.33;;;;;;;;4997816;28;45492;-73
2022/08/24 02:14:50;;;;;;;;;6.00;5.67;;;;;;;;4994630;28;46041;-73
2022/08/24 02:17:17;;;;;;;;;5.33;3.00;;;;;;;;4996140;28;47102;-73
2022/08/24 02:19:42;;;;;;;;;4.67;4.33;;;;;;;;4995356;28;45471;-73
2022/08/24 02:22:08;;;;;;;;;4.00;3.33;;;;;;;;4996255;27;45407;-73
2022/08/24 02:24:33;;;;;;;;;5.33;5.33;;;;;;;;4992405;28;45329;-73
2022/08/24 02:26:58;;;;;;;;;5.00;5.00;;;;;;;;4997613;27;47377;-73
2022/08/24 02:29:24;;;;;;;;;4.33;4.33;;;;;;;;4989476;28;45534;-73
2022/08/24 02:31:49;;;;;;;;;6.00;6.00;;;;;;;;4995431;28;45257;-73
2022/08/24 02:34:15;;;;;;;;;5.00;5.00;;;;;;;;4993624;27;46204;-73
2022/08/24 02:36:40;;;;;;;;;4.00;4.00;;;;;;;;4994800;28;45096;-73
2022/08/24 02:39:06;;;;;;;;;5.33;5.00;;;;;;;;4995028;27;45914;-73
2022/08/24 02:41:31;;;;;;;;;7.00;4.33;;;;;;;;4996143;27;45281;-73
2022/08/24 02:43:58;;;;;;;;;5.67;5.67;;;;;;;;4991878;28;45450;-73
2022/08/24 02:46:25;;;;;;;;;6.00;6.00;;;;;;;;4995879;28;47477;-73
2022/08/24 02:48:51;;;;;;;;;8.33;6.00;;;;;;;;4991722;28;45481;-73
2022/08/24 02:51:17;;;;;;;;;7.00;5.67;;;;;;;;4995919;27;45526;-73
2022/08/24 02:53:42;;;;;;;;;4.00;4.00;;;;;;;;4992339;28;45431;-74
2022/08/24 02:56:07;;;;;;;;;6.00;4.67;;;;;;;;4986798;28;46181;-73
2022/08/24 02:58:33;;;;;;;;;8.00;5.33;;;;;;;;4992124;28;45509;-74
2022/08/24 03:00:58;;;;;;;;;5.33;4.00;;;;;;;;4990281;27;45413;-73
2022/08/24 03:03:23;;;;;;;;;4.00;4.00;;;;;;;;4992083;27;45541;-73
2022/08/24 03:05:49;;;;;;;;;7.00;7.00;;;;;;;;4985873;28;46497;-73
2022/08/24 03:08:14;;;;;;;;;7.00;5.00;;;;;;;;4992805;28;45334;-73
2022/08/24 03:10:39;;;;;;;;;5.00;5.00;;;;;;;;4997040;27;45374;-74
2022/08/24 03:13:04;;;;;;;;;5.33;5.33;;;;;;;;4993825;28;45431;-74
2022/08/24 03:15:29;;;;;;;;;5.00;4.00;;;;;;;;4985780;28;46095;-74
2022/08/24 03:17:55;;;;;;;;;5.00;5.00;;;;;;;;4989283;27;45121;-73
2022/08/24 03:20:21;;;;;;;;;4.67;3.33;;;;;;;;4996264;27;45423;-73
2022/08/24 03:22:46;;;;;;;;;4.00;4.00;;;;;;;;4995184;28;45169;-74
2022/08/24 03:25:12;;;;;;;;;5.33;5.33;;;;;;;;4989834;28;45973;-73
2022/08/24 03:27:37;;;;;;;;;3.67;3.67;;;;;;;;4994464;28;45388;-73
2022/08/24 03:30:04;;;;;;;;;4.67;4.67;;;;;;;;4989206;28;45644;-74
2022/08/24 03:32:29;;;;;;;;;4.00;4.00;;;;;;;;4995472;28;47350;-73
2022/08/24 03:34:54;;;;;;;;;7.00;7.00;;;;;;;;4993358;27;45418;-73
2022/08/24 03:37:20;;;;;;;;;5.00;4.00;;;;;;;;4996010;28;45306;-73
2022/08/24 03:39:46;;;;;;;;;4.00;4.00;;;;;;;;4994035;28;45390;-73
2022/08/24 03:42:12;;;;;;;;;5.00;5.00;;;;;;;;4993728;28;46705;-73
2022/08/24 03:44:38;;;;;;;;;6.33;6.33;;;;;;;;4991487;28;45368;-73
2022/08/24 03:47:03;;;;;;;;;6.00;5.67;;;;;;;;4994372;28;45341;-73
2022/08/24 03:49:28;;;;;;;;;5.67;5.67;;;;;;;;4991592;28;45487;-72
2022/08/24 03:51:53;;;;;;;;;5.67;5.33;;;;;;;;4994256;28;45448;-73
2022/08/24 03:54:19;;;;;;;;;6.33;4.00;;;;;;;;4994059;28;46702;-73
2022/08/24 03:56:44;;;;;;;;;3.67;3.00;;;;;;;;4994263;28;45373;-73
2022/08/24 03:59:10;;;;;;;;;5.67;5.67;;;;;;;;4994489;28;45249;-73
2022/08/24 04:01:35;;;;;;;;;5.67;5.00;;;;;;;;4994299;28;45319;-73
2022/08/24 04:04:01;;;;;;;;;6.00;6.00;;;;;;;;4988201;28;45299;-73
2022/08/24 04:06:26;;;;;;;;;5.00;4.67;;;;;;;;4988325;28;45242;-73
2022/08/24 04:08:52;;;;;;;;;4.00;4.00;;;;;;;;4991093;28;45449;-74
2022/08/24 04:11:22;;;;;;;;;6.00;6.00;;;;;;;;4994184;28;45291;-73
2022/08/24 04:13:48;;;;;;;;;6.00;6.00;;;;;;;;4991638;28;46066;-73
2022/08/24 04:16:15;;;;;;;;;7.33;6.67;;;;;;;;4994713;28;45496;-73
2022/08/24 04:18:40;;;;;;;;;6.33;6.33;;;;;;;;4993601;28;45303;-73
2022/08/24 04:21:06;;;;;;;;;4.00;4.00;;;;;;;;4991128;28;45683;-73
2022/08/24 04:23:32;;;;;;;;;5.00;5.00;;;;;;;;4989530;28;45215;-73
2022/08/24 04:26:01;;;;;;;;;5.33;5.00;;;;;;;;4994836;28;45354;-73
2022/08/24 04:28:27;;;;;;;;;6.00;4.33;;;;;;;;4991681;28;45240;-73
2022/08/24 04:30:52;;;;;;;;;9.00;6.00;;;;;;;;4992013;27;45913;-73
2022/08/24 04:33:18;;;;;;;;;7.00;5.00;;;;;;;;4991648;27;46383;-73
2022/08/24 04:35:45;;;;;;;;;7.33;4.33;;;;;;;;4993653;27;45443;-73
2022/08/24 04:38:11;;;;;;;;;4.67;4.67;;;;;;;;4992791;27;45427;-73
2022/08/24 04:40:40;;;;;;;;;6.00;6.00;;;;;;;;4990694;28;45384;-73
2022/08/24 04:43:06;;;;;;;;;8.00;8.00;;;;;;;;4996200;28;45664;-75
2022/08/24 04:45:32;;;;;;;;;6.33;5.33;;;;;;;;4992942;28;45740;-75
2022/08/24 04:47:58;;;;;;;;;8.00;8.00;;;;;;;;4996141;27;45596;-75
2022/08/24 04:50:23;;;;;;;;;5.67;5.67;;;;;;;;4993430;28;45647;-74
2022/08/24 04:52:48;;;;;;;;;5.33;5.33;;;;;;;;4996581;28;45401;-75
2022/08/24 04:55:14;;;;;;;;;7.33;5.33;;;;;;;;4991721;28;46081;-75
2022/08/24 04:57:39;;;;;;;;;5.33;5.00;;;;;;;;4997732;27;45488;-75
2022/08/24 05:00:05;;;;;;;;;11.00;5.33;;;;;;;;4990279;28;45375;-75
2022/08/24 05:02:30;;;;;;;;;6.00;5.00;;;;;;;;4998576;27;47677;-75
2022/08/24 05:04:56;;;;;;;;;7.67;5.33;;;;;;;;4989698;27;45251;-74
2022/08/24 05:07:22;;;;;;;;;5.33;5.33;;;;;;;;4997892;27;45238;-75
2022/08/24 05:09:47;;;;;;;;;6.33;5.33;;;;;;;;4995850;28;45314;-75
2022/08/24 05:12:12;;;;;;;;;12.33;7.00;;;;;;;;4997373;27;46394;-75
2022/08/24 05:14:38;;;;;;;;;5.00;5.00;;;;;;;;4994215;27;45466;-75
2022/08/24 05:17:03;;;;;;;;;5.00;5.00;;;;;;;;4998021;27;45372;-76
2022/08/24 05:19:28;;;;;;;;;6.00;6.00;;;;;;;;4990469;27;45388;-75
2022/08/24 05:21:53;;;;;;;;;6.67;6.67;;;;;;;;4995656;27;45454;-76
2022/08/24 05:24:18;;;;;;;;;8.00;7.33;;;;;;;;4989936;28;45294;-75
2022/08/24 05:26:44;;;;;;;;;7.00;7.00;;;;;;;;4996906;27;45300;-75
2022/08/24 05:29:09;;;;;;;;;6.00;6.00;;;;;;;;4991144;28;45402;-75
2022/08/24 05:31:34;;;;;;;;;6.33;5.00;;;;;;;;4995762;28;46013;-74
2022/08/24 05:34:00;;;;;;;;;6.00;6.00;;;;;;;;4993925;27;45249;-73
2022/08/24 05:36:27;;;;;;;;;6.00;5.33;;;;;;;;4996248;27;45394;-73
2022/08/24 05:38:54;;;;;;;;;8.00;6.33;;;;;;;;4992197;27;45432;-73
2022/08/24 05:41:19;;;;;;;;;5.67;5.67;;;;;;;;4994892;28;45325;-73
2022/08/24 05:43:45;;;;;;;;;9.00;7.33;;;;;;;;4993553;27;45208;-72
2022/08/24 05:46:10;;;;;;;;;6.33;5.00;;;;;;;;4994780;28;45311;-73
2022/08/24 05:48:36;;;;;;;;;6.33;6.00;;;;;;;;4995419;28;45516;-73
2022/08/24 05:51:02;;;;;;;;;8.67;7.33;;;;;;;;4994392;27;45348;-73
2022/08/24 05:53:28;;;;;;;;;5.00;5.00;;;;;;;;4993116;28;45385;-73
2022/08/24 05:55:53;;;;;;;;;9.00;8.33;;;;;;;;4993102;28;45215;-72
2022/08/24 05:58:19;;;;;;;;;7.33;6.33;;;;;;;;4994220;28;45430;-73
2022/08/24 06:00:44;;;;;;;;;7.67;7.67;;;;;;;;4993108;28;45325;-73
2022/08/24 06:03:13;;;;;;;;;7.67;6.67;;;;;;;;4994745;28;45600;-73
2022/08/24 06:05:40;;;;;;;;;6.33;4.67;;;;;;;;4991060;27;45482;-74
2022/08/24 06:08:05;;;;;;;;;9.00;7.00;;;;;;;;4993951;27;46049;-73
2022/08/24 06:10:31;;;;;;;;;9.00;6.00;;;;;;;;4992539;27;45221;-74
2022/08/24 06:12:56;;;;;;;;;4.00;4.00;;;;;;;;4994895;27;45247;-74
2022/08/24 06:15:22;;;;;;;;;8.33;6.67;;;;;;;;4990274;28;45206;-72
2022/08/24 06:17:47;;;;;;;;;7.00;6.00;;;;;;;;4991856;28;45375;-72
2022/08/24 06:20:12;;;;;;;;;8.33;7.67;;;;;;;;4989478;28;45546;-72
2022/08/24 06:22:37;;;;;;;;;8.67;7.00;;;;;;;;4989275;27;45400;-73
2022/08/24 06:27:47;;;;;;;;;10.33;7.67;;;;;;;;4989645;28;45501;-73
2022/08/24 06:30:12;;;;;;;;;7.33;7.33;;;;;;;;4994289;27;47015;-74
2022/08/24 06:32:38;;;;;;;;;10.67;10.67;;;;;;;;4990922;27;45236;-74
2022/08/24 06:35:04;;;;;;;;;10.00;7.33;;;;;;;;4994770;27;45150;-74
2022/08/24 06:37:29;;;;;;;;;7.33;5.67;;;;;;;;4994490;27;46962;-74
2022/08/24 06:39:55;;;;;;;;;8.00;6.33;;;;;;;;4991520;27;48060;-74
2022/08/24 06:42:23;;;;;;;;;8.67;7.33;;;;;;;;4989235;27;45362;-73
2022/08/24 06:44:48;;;;;;;;;8.00;8.00;;;;;;;;4989049;27;45300;-73
2022/08/24 06:47:13;;;;;;;;;9.67;7.33;;;;;;;;4992001;28;45411;-74
2022/08/24 06:49:39;;;;;;;;;10.00;8.67;;;;;;;;4987985;27;45474;-74
2022/08/24 06:52:04;;;;;;;;;9.00;8.00;;;;;;;;4995838;27;45682;-74
2022/08/24 06:54:30;;;;;;;;;11.67;10.67;;;;;;;;4989691;28;45658;-73
2022/08/24 06:56:57;;;;;;;;;10.67;9.33;;;;;;;;4988445;27;45487;-74
2022/08/24 06:59:22;;;;;;;;;7.33;7.33;;;;;;;;4986743;28;45908;-74
2022/08/24 07:01:47;;;;;;;;;6.67;6.67;;;;;;;;4989048;27;45246;-74
2022/08/24 07:04:13;;;;;;;;;8.33;7.00;;;;;;;;4988972;28;45610;-74
2022/08/24 07:06:38;;;;;;;;;11.00;9.33;;;;;;;;4991082;27;45440;-74
2022/08/24 07:09:04;;;;;;;;;8.33;8.00;;;;;;;;4982652;27;45412;-73
2022/08/24 07:11:31;;;;;;;;;8.50;6.75;;;;;;;;4977527;28;45270;-77
2022/08/24 07:13:56;;;;;;;;;8.00;7.75;;;;;;;;4984061;27;45632;-72
2022/08/24 07:16:21;;;;;;;;;8.50;7.00;;;;;;;;4980272;28;45300;-72
2022/08/24 07:18:46;;;;;;;;;6.50;6.50;;;;;;;;4981968;27;45403;-72
2022/08/24 07:21:12;;;;;;;;;7.25;7.00;;;;;;;;4981063;28;45397;-71
2022/08/24 07:23:37;;;;;;;;;7.50;7.00;;;;;;;;4987900;28;45464;-71
2022/08/24 07:26:06;;;;;;;;;6.50;5.50;;;;;;;;4991009;27;45397;-70
2022/08/24 07:28:34;;;;;;;;;7.25;6.00;;;;;;;;4991940;27;45616;-70
2022/08/24 07:30:59;;;;;;;;;9.25;8.75;;;;;;;;4991141;27;45624;-69
2022/08/24 07:33:24;;;;;;;;;8.25;7.75;;;;;;;;4990175;27;45321;-71
2022/08/24 07:35:49;;;;;;;;;6.75;6.50;;;;;;;;4996210;27;45437;-72
2022/08/24 07:38:14;;;;;;;;;6.00;6.00;;;;;;;;4990538;27;46628;-70
2022/08/24 07:40:40;;;;;;;;;9.50;7.00;;;;;;;;4987945;27;45495;-70
2022/08/24 07:43:05;;;;;;;;;8.25;8.25;;;;;;;;4994516;27;45462;-70
2022/08/24 07:45:32;;;;;;;;;9.50;6.50;;;;;;;;4984754;27;45336;-70
2022/08/24 07:47:57;;;;;;;;;7.00;7.00;;;;;;;;4981483;27;45363;-70
2022/08/24 07:50:22;;;;;;;;;8.00;8.00;;;;;;;;4986467;28;45261;-70
2022/08/24 07:52:48;;;;;;;;;9.00;6.75;;;;;;;;4994962;27;45290;-69
2022/08/24 07:55:13;;;;;;;;;6.25;6.25;;;;;;;;4979219;28;45481;-70
2022/08/24 07:57:39;;;;;;;;;6.75;6.00;;;;;;;;4992900;27;46963;-70
2022/08/24 08:00:07;;;;;;;;;7.00;6.00;;;;;;;;4980316;28;45453;-70
2022/08/24 08:02:32;;;;;;;;;6.25;6.25;;;;;;;;4996335;27;45418;-70
2022/08/24 08:04:58;;;;;;;;;8.00;7.00;;;;;;;;4981876;27;45528;-70
2022/08/24 08:07:23;;;;;;;;;5.75;5.75;;;;;;;;4991305;28;45314;-70
2022/08/24 08:09:48;;;;;;;;;6.00;6.00;;;;;;;;4989062;28;45340;-71
2022/08/24 08:12:14;;;;;;;;;10.25;6.50;;;;;;;;4995336;28;45258;-71
2022/08/24 08:14:39;;;;;;;;;7.00;6.00;;;;;;;;4992188;27;45454;-71
2022/08/24 08:17:06;;;;;;;;;7.50;5.75;;;;;;;;4990835;28;45211;-70
2022/08/24 08:19:31;;;;;;;;;10.40;5.80;;;;;;;;4985015;28;45395;-71
2022/08/24 08:24:43;;;;;;;;;6.75;6.75;;;;;;;;4985022;28;45371;-70
2022/08/24 08:27:09;;;;;;;;;6.25;6.25;;;;;;;;4986038;28;45453;-71
2022/08/24 08:29:35;;;;;;;;;7.60;7.60;;;;;;;;4987537;28;45463;-71
2022/08/24 08:32:01;;;;;;;;;13.50;10.75;;;;;;;;4986700;28;45362;-71
2022/08/24 08:34:26;;;;;;;;;4.25;4.25;;;;;;;;4994777;27;45369;-71
2022/08/24 08:36:52;;;;;;;;;6.00;6.00;;;;;;;;4983611;28;48261;-74
2022/08/24 08:39:18;;;;;;;;;6.25;6.00;;;;;;;;4983966;28;45348;-74
2022/08/24 08:42:03;;;;;;;;;8.00;7.40;;;;;;;;4984540;28;45312;-75
2022/08/24 08:44:42;;;;;;;;;6.60;6.60;;;;;;;;4986893;27;46028;-73
2022/08/24 08:47:29;;;;;;;;;9.60;7.80;;;;;;;;4980943;28;45355;-72
2022/08/24 08:50:01;;;;;;;;;5.80;5.80;;;;;;;;4981425;27;45353;-72
2022/08/24 08:52:45;;;;;;;;;5.60;5.60;;;;;;;;4991567;27;45512;-72
2022/08/24 08:55:25;;;;;;;;;8.00;6.40;;;;;;;;4983273;28;45576;-72
2022/08/24 08:58:11;;;;;;;;;9.60;7.20;;;;;;;;4982594;28;46030;-73
2022/08/24 09:00:42;;;;;;;;;8.00;7.00;;;;;;;;4990260;28;45311;-73
2022/08/24 09:03:26;;;;;;;;;8.60;7.00;;;;;;;;4981620;28;45447;-72
2022/08/24 09:05:57;;;;;;;;;8.40;7.00;;;;;;;;4995497;27;47096;-72
2022/08/24 09:08:28;;;;;;;;;8.60;7.00;;;;;;;;4989510;27;47710;-73
2022/08/24 09:10:58;;;;;;;;;7.00;6.00;;;;;;;;4992379;28;45599;-73
2022/08/24 09:13:27;;;;;;;;;8.80;8.00;;;;;;;;4986360;27;46001;-73
2022/08/24 09:16:01;;;;;;;;;6.80;6.00;;;;;;;;4976375;28;45430;-73
2022/08/24 09:18:40;;;;;;;;;7.00;6.00;;;;;;;;4984673;28;45408;-73
2022/08/24 09:21:12;;;;;;;;;9.80;7.00;;;;;;;;4977218;28;45450;-73
2022/08/24 09:24:02;;;;;;;;;10.00;7.80;;;;;;;;4985297;28;45498;-74
2022/08/24 09:26:38;;;;;;;;;5.80;5.80;;;;;;;;4978746;27;45283;-73
2022/08/24 09:29:12;;;;;;;;;10.20;8.80;;;;;;;;4984476;28;47091;-75
2022/08/24 09:31:56;;;;;;;;;6.00;4.80;;;;;;;;4994388;27;45397;-73
2022/08/24 09:34:24;;;;;;;;;3.20;3.20;;;;;;;;4986783;27;46979;-74
2022/08/24 09:37:03;;;;;;;;;4.20;4.20;;;;;;;;4988197;28;46139;-73
2022/08/24 09:39:35;;;;;;;;;3.60;2.20;;;;;;;;4988705;27;45625;-73
2022/08/24 09:42:17;;;;;;;;;2.20;2.20;;;;;;;;4989543;28;45681;-73
2022/08/24 09:45:01;;;;;;;;;2.20;2.20;;;;;;;;4980658;27;45418;-73
2022/08/24 09:47:26;;;;;;;;;26.40;21.20;;;;;;;;4981143;27;45592;-73
2022/08/24 09:50:10;;;;;;;;;2.75;2.00;;;;;;;;4986389;28;46109;-73
2022/08/24 09:52:53;;;;;;;;;1.40;1.40;;;;;;;;4992508;28;45723;-73
2022/08/24 09:55:25;;;;;;;;;1.00;1.00;;;;;;;;4982516;27;45686;-73
2022/08/24 09:58:09;;;;;;;;;1.00;1.00;;;;;;;;4994064;28;45415;-73
2022/08/24 10:00:45;;;;;;;;;5.00;4.00;;;;;;;;4991351;27;46145;-73
2022/08/24 10:03:13;;;;;;;;;5.60;3.60;;;;;;;;4991901;27;45479;-73
2022/08/24 10:05:53;;;;;;;;;3.20;1.00;;;;;;;;4992244;27;45386;-73
2022/08/24 10:08:18;;;;;;;;;0.60;0.20;;;;;;;;4993113;28;45281;-73
2022/08/24 10:10:51;;;;;;;;;1.00;1.00;;;;;;;;4995298;27;45413;-73
2022/08/24 10:13:28;;;;;;;;;1.80;1.80;;;;;;;;4994516;28;45459;-73
2022/08/24 10:15:59;;;;;;;;;0.00;0.00;;;;;;;;4982646;28;45408;-73
2022/08/24 10:18:43;;;;;;;;;0.20;0.20;;;;;;;;4984495;27;45549;-73
2022/08/24 10:21:16;;;;;;;;;0.00;0.00;;;;;;;;4992722;28;46425;-73
2022/08/24 10:24:00;;;;;;;;;3.40;0.60;;;;;;;;4992254;28;45481;-74
2022/08/24 10:26:44;;;;;;;;;1.00;1.00;;;;;;;;4995004;28;45779;-73
2022/08/24 10:29:16;;;;;;;;;0.20;0.20;;;;;;;;4987466;27;45324;-73
2022/08/24 10:32:01;;;;;;;;;0.00;0.00;;;;;;;;4984779;27;45220;-73
2022/08/24 10:34:53;;;;;;;;;1.00;1.00;;;;;;;;4989512;28;45431;-73
2022/08/24 10:37:40;;;;;;;;;3.20;0.20;;;;;;;;4982130;28;45323;-73
2022/08/24 10:40:20;;;;;;;;;2.00;0.20;;;;;;;;4984589;27;45692;-75
2022/08/24 10:46:14;;;;;;;;;4.00;4.00;;;;;;;;4986947;27;45393;-75
2022/08/24 10:48:59;;;;;;;;;4.80;2.00;;;;;;;;4983855;28;45443;-76
2022/08/24 10:51:43;;;;;;;;;1.60;1.60;;;;;;;;4975764;28;45412;-76
2022/08/24 10:54:11;;;;;;;;;1.00;0.00;;;;;;;;4984069;28;45521;-76
2022/08/24 10:56:49;;;;;;;;;0.00;0.00;;;;;;;;4982337;27;45674;-75
2022/08/24 10:59:17;;;;;;;;;1.20;1.20;;;;;;;;4988728;27;45373;-75
2022/08/24 11:01:58;;;;;;;;;0.00;0.00;;;;;;;;4986214;27;46032;-72
2022/08/24 11:04:28;;;;;;;;;0.20;0.00;;;;;;;;4988284;27;46625;-75
2022/08/24 11:07:15;;;;;;;;;0.20;0.00;;;;;;;;4988591;28;45452;-73
2022/08/24 11:09:52;;;;;;;;;1.60;1.60;;;;;;;;4983215;28;45319;-74
2022/08/24 11:12:25;;;;;;;;;1.00;1.00;;;;;;;;4984712;28;45259;-75
2022/08/24 11:14:51;;;;;;;;;2.00;1.40;;;;;;;;4990693;27;45437;-74
2022/08/24 11:17:18;;;;;;;;;0.50;0.50;;;;;;;;4992996;27;45426;-72
2022/08/24 11:19:44;;;;;;;;;0.00;0.00;;;;;;;;4984605;28;45149;-73
2022/08/24 11:22:30;;;;;;;;;0.00;0.00;;;;;;;;4986613;27;45219;-74
2022/08/24 11:25:01;;;;;;;;;1.20;1.20;;;;;;;;4989998;27;47675;-74
2022/08/24 11:27:35;;;;;;;;;1.00;1.00;;;;;;;;4987441;28;45251;-74
2022/08/24 11:30:09;;;;;;;;;1.00;0.20;;;;;;;;4981459;27;45315;-77
2022/08/24 11:32:41;;;;;;;;;1.60;1.00;;;;;;;;4989082;27;45457;-75
2022/08/24 11:35:21;;;;;;;;;0.80;0.80;;;;;;;;4998051;27;45737;-75
2022/08/24 11:37:48;;;;;;;;;0.00;0.00;;;;;;;;4984524;27;45339;-75
2022/08/24 11:40:14;;;;;;;;;1.00;1.00;;;;;;;;4985472;28;45495;-76
2022/08/24 11:42:49;;;;;;;;;0.80;0.80;;;;;;;;4986624;27;47168;-76
2022/08/24 11:45:24;;;;;;;;;1.00;1.00;;;;;;;;4981652;27;47135;-75
2022/08/24 11:48:08;;;;;;;;;1.60;1.60;;;;;;;;4991240;28;45488;-75
2022/08/24 11:50:37;;;;;;;;;3.60;3.00;;;;;;;;4993405;28;45576;-76
2022/08/24 11:53:10;;;;;;;;;2.00;2.00;;;;;;;;4989920;28;45481;-76
2022/08/24 11:55:42;;;;;;;;;0.40;0.40;;;;;;;;4985149;28;46219;-76
2022/08/24 11:58:12;;;;;;;;;0.80;0.00;;;;;;;;4982494;27;45448;-75
2022/08/24 12:00:59;;;;;;;;;0.00;0.00;;;;;;;;5001312;27;45361;-76
2022/08/24 12:03:27;;;;;;;;;1.20;1.20;;;;;;;;4983596;27;45533;-74
2022/08/24 12:05:52;;;;;;;;;1.00;0.00;;;;;;;;4993273;28;45637;-75
2022/08/24 12:08:21;;;;;;;;;0.00;0.00;;;;;;;;4991218;28;46040;-75
2022/08/24 12:10:55;;;;;;;;;0.60;0.60;;;;;;;;4995121;28;45419;-75
2022/08/24 12:13:39;;;;;;;;;0.00;0.00;;;;;;;;4979880;28;46539;-75
2022/08/24 12:16:11;;;;;;;;;1.60;0.20;;;;;;;;4990033;28;46549;-75
2022/08/24 12:18:53;;;;;;;;;0.60;0.60;;;;;;;;4983268;28;45159;-75
2022/08/24 12:21:19;;;;;;;;;2.00;2.00;;;;;;;;4984181;28;46293;-76
2022/08/24 12:23:47;;;;;;;;;2.00;0.60;;;;;;;;4982512;27;47156;-75
2022/08/24 12:26:21;;;;;;;;;0.00;0.00;;;;;;;;4980571;27;46192;-75
2022/08/24 12:28:49;;;;;;;;;1.00;1.00;;;;;;;;4985973;28;45406;-75
2022/08/24 12:31:14;;;;;;;;;0.20;0.20;;;;;;;;4990299;28;45484;-75
2022/08/24 12:33:43;;;;;;;;;2.00;1.00;;;;;;;;4994469;27;45243;-75
2022/08/24 12:36:16;;;;;;;;;1.20;1.20;;;;;;;;4994991;27;45330;-76
2022/08/24 12:38:44;;;;;;;;;2.20;1.00;;;;;;;;4988851;28;45592;-76
2022/08/24 12:41:12;;;;;;;;;1.20;1.20;;;;;;;;4988397;28;45298;-75
2022/08/24 12:43:37;;;;;;;;;0.00;0.00;;;;;;;;4984802;28;45186;-75
2022/08/24 12:46:05;;;;;;;;;0.75;0.00;;;;;;;;4987514;28;46472;-75
2022/08/24 12:48:41;;;;;;;;;0.20;0.20;;;;;;;;4988403;28;45157;-75
2022/08/24 12:51:19;;;;;;;;;0.20;0.20;;;;;;;;4991822;28;45626;-75
2022/08/24 12:53:44;;;;;;;;;0.80;0.80;;;;;;;;4988370;28;45528;-74
2022/08/24 12:56:28;;;;;;;;;1.00;1.00;;;;;;;;4983843;28;46106;-74
2022/08/24 12:59:06;;;;;;;;;0.00;0.00;;;;;;;;4989034;28;45411;-74
2022/08/24 13:01:34;;;;;;;;;1.00;1.00;;;;;;;;4977767;28;45461;-74
2022/08/24 13:04:20;;;;;;;;;0.00;0.00;;;;;;;;4986084;27;45546;-75
2022/08/24 13:06:49;;;;;;;;;0.20;0.00;;;;;;;;4982542;27;45203;-75
2022/08/24 13:09:30;;;;;;;;;2.20;2.20;;;;;;;;4985636;28;45444;-77
2022/08/24 13:11:56;;;;;;;;;0.00;0.00;;;;;;;;4986955;27;45480;-76
2022/08/24 13:14:23;;;;;;;;;1.80;0.60;;;;;;;;4986240;27;45533;-76
2022/08/24 13:16:54;;;;;;;;;6.40;4.40;;;;;;;;4982677;28;45379;-75
2022/08/24 13:19:27;;;;;;;;;1.20;1.20;;;;;;;;4989593;28;45378;-75
2022/08/24 13:21:57;;;;;;;;;0.00;0.00;;;;;;;;4987709;28;45485;-75
2022/08/24 13:24:28;;;;;;;;;1.40;1.40;;;;;;;;4985871;28;45418;-75
2022/08/24 13:26:55;;;;;;;;;0.00;0.00;;;;;;;;4996742;28;45358;-75
2022/08/24 13:29:24;;;;;;;;;0.20;0.20;;;;;;;;4993432;28;45296;-75
2022/08/24 13:31:52;;;;;;;;;0.20;0.20;;;;;;;;4994841;28;45361;-75
2022/08/24 13:34:20;;;;;;;;;1.00;0.00;;;;;;;;4992365;27;45371;-75
2022/08/24 13:36:48;;;;;;;;;0.20;0.20;;;;;;;;4995108;27;48015;-75
2022/08/24 13:39:19;;;;;;;;;0.20;0.20;;;;;;;;4989134;27;45805;-75
2022/08/24 13:42:05;;;;;;;;;0.20;0.20;;;;;;;;4992088;27;45495;-75
2022/08/24 13:44:42;;;;;;;;;0.00;0.00;;;;;;;;4992480;27;45314;-75
2022/08/24 13:47:16;;;;;;;;;0.00;0.00;;;;;;;;4989596;27;45331;-75
2022/08/24 13:50:00;;;;;;;;;0.80;0.80;;;;;;;;4988326;27;45482;-75
2022/08/24 13:52:30;;;;;;;;;0.00;0.00;;;;;;;;4990275;28;45219;-74
2022/08/24 13:54:59;;;;;;;;;2.20;1.00;;;;;;;;4987229;27;45544;-75
2022/08/24 13:57:34;;;;;;;;;0.80;0.80;;;;;;;;4988670;27;46139;-75
2022/08/24 14:00:16;;;;;;;;;0.00;0.00;;;;;;;;4983599;28;45453;-75
2022/08/24 14:02:54;;;;;;;;;0.00;0.00;;;;;;;;4986286;27;45436;-75
2022/08/24 14:05:25;;;;;;;;;2.40;0.20;;;;;;;;4992116;27;46393;-74
2022/08/24 14:07:51;;;;;;;;;4.00;3.40;;;;;;;;4995211;27;46137;-75
2022/08/24 14:10:30;;;;;;;;;0.00;0.00;;;;;;;;4981293;27;45271;-75
2022/08/24 14:13:01;;;;;;;;;0.00;0.00;;;;;;;;4993696;27;45441;-75
2022/08/24 14:15:45;;;;;;;;;0.00;0.00;;;;;;;;4983870;27;45743;-75
2022/08/24 14:18:34;;;;;;;;;0.00;0.00;;;;;;;;4990658;27;46364;-75
2022/08/24 14:21:15;;;;;;;;;0.00;0.00;;;;;;;;4981942;27;45166;-75
2022/08/24 14:23:44;;;;;;;;;1.80;0.20;;;;;;;;4982344;28;45431;-75
2022/08/24 14:26:28;;;;;;;;;0.00;0.00;;;;;;;;4984210;27;45608;-76
2022/08/24 14:29:13;;;;;;;;;0.20;0.20;;;;;;;;4989913;27;47700;-75
2022/08/24 14:31:39;;;;;;;;;0.80;0.80;;;;;;;;4989326;27;45278;-75
2022/08/24 14:34:07;;;;;;;;;0.00;0.00;;;;;;;;5003417;27;45513;-76
2022/08/24 14:36:45;;;;;;;;;0.00;0.00;;;;;;;;4990519;28;45353;-75
2022/08/24 14:39:25;;;;;;;;;1.00;0.00;;;;;;;;4987843;27;45402;-74
2022/08/24 14:42:02;;;;;;;;;0.80;0.80;;;;;;;;4979913;27;45422;-74
2022/08/24 14:44:34;;;;;;;;;0.00;0.00;;;;;;;;4985940;27;45469;-75
2022/08/24 14:47:18;;;;;;;;;0.20;0.20;;;;;;;;4985086;27;45510;-75
2022/08/24 14:49:46;;;;;;;;;0.00;0.00;;;;;;;;4980326;27;45342;-75
2022/08/24 14:52:29;;;;;;;;;5.00;3.00;;;;;;;;4993267;28;45294;-75
2022/08/24 14:55:14;;;;;;;;;0.40;0.40;;;;;;;;4984211;27;45294;-75
2022/08/24 14:57:58;;;;;;;;;0.20;0.20;;;;;;;;4996778;28;45453;-78
2022/08/24 15:00:44;;;;;;;;;2.60;1.20;;;;;;;;4991481;27;46535;-79
2022/08/24 15:03:38;;;;;;;;;4.60;2.20;;;;;;;;4993327;27;45413;-78
2022/08/24 15:06:19;;;;;;;;;3.20;1.80;;;;;;;;4990062;28;45449;-78
2022/08/24 15:08:44;;;;;;;;;8.00;6.60;;;;;;;;4987025;27;45390;-79
2022/08/24 15:11:35;;;;;;;;;0.00;0.00;;;;;;;;4979890;28;45374;-79